Time;durP1;ratioP1;P1;durP2;ratioP2;P2;SDS_P1;SDS_P2;PMS_P1;PMS_P2;Temp;Humidity;BMP_temperature;BMP_pressure;BME280_temperature;BME280_humidity;BME280_pressure;Samples;Min_cycle;Max_cycle;Signal;HPM_P1;HPM_P2
2023/04/02 00:02:33;;;;;;;1.33;1.23;;;7.70;99.90;;;6.67;100.00;96540.41;5032148;28;20410;-75
2023/04/02 00:05:53;;;;;;;2.40;1.40;;;7.70;99.90;;;6.66;100.00;96543.28;5032108;28;20403;-75
2023/04/02 00:08:37;;;;;;;1.33;1.23;;;7.70;99.90;;;6.64;100.00;96551.41;5031810;28;20431;-75
2023/04/02 00:11:04;;;;;;;2.42;1.38;;;7.70;99.90;;;6.66;100.00;96545.91;5031563;28;20487;-74
2023/04/02 00:13:39;;;;;;;1.60;1.25;;;7.70;99.90;;;6.68;100.00;96551.75;5031479;28;20947;-74
2023/04/02 00:16:11;;;;;;;3.17;1.90;;;7.70;99.90;;;6.70;100.00;96558.31;5030410;28;20958;-74
2023/04/02 00:18:45;;;;;;;3.60;1.80;;;7.70;99.90;;;6.67;100.00;96552.78;5031588;28;20465;-75
2023/04/02 00:21:18;;;;;;;1.65;1.10;;;7.70;99.90;;;6.76;100.00;96556.56;5031280;28;20406;-75
2023/04/02 00:23:45;;;;;;;1.40;1.30;;;7.80;99.90;;;6.73;100.00;96565.72;5030886;28;20497;-75
2023/04/02 00:26:27;;;;;;;1.53;1.20;;;7.80;99.90;;;6.67;100.00;96558.81;5031413;28;21146;-75
2023/04/02 00:28:55;;;;;;;1.65;1.45;;;7.70;99.90;;;6.72;100.00;96569.41;5031419;28;20399;-75
2023/04/02 00:31:22;;;;;;;1.90;1.20;;;7.70;99.90;;;6.71;100.00;96567.81;5031267;28;20419;-75
2023/04/02 00:33:50;;;;;;;1.50;1.30;;;7.70;99.90;;;6.77;100.00;96568.66;5031477;28;20414;-75
2023/04/02 00:36:19;;;;;;;2.25;1.33;;;7.80;99.90;;;6.83;100.00;96565.84;5031397;28;20399;-75
2023/04/02 00:38:47;;;;;;;1.35;1.25;;;7.80;99.90;;;6.76;100.00;96570.50;5031365;28;20402;-75
2023/04/02 00:41:19;;;;;;;3.33;1.50;;;7.80;99.90;;;6.90;100.00;96569.09;5031134;28;20479;-75
2023/04/02 00:43:49;;;;;;;1.90;1.30;;;7.80;99.90;;;6.85;100.00;96574.25;5030153;28;20399;-75
2023/04/02 00:46:22;;;;;;;2.95;1.40;;;7.90;99.90;;;6.86;100.00;96572.44;5031037;28;20415;-75
2023/04/02 00:48:56;;;;;;;1.40;1.20;;;7.80;99.90;;;6.84;100.00;96571.91;5031196;28;20457;-75
2023/04/02 00:51:29;;;;;;;1.42;1.30;;;7.80;99.90;;;6.80;100.00;96571.59;5030979;28;20745;-75
2023/04/02 00:54:00;;;;;;;1.60;1.30;;;7.80;99.90;;;6.83;100.00;96565.84;5031547;28;20410;-75
2023/04/02 00:56:31;;;;;;;2.17;1.30;;;7.80;99.90;;;6.79;100.00;96564.75;5030882;28;20547;-75
2023/04/02 00:58:58;;;;;;;1.38;1.20;;;7.80;99.90;;;6.77;100.00;96572.06;5011284;28;20956;-75
2023/04/02 01:01:33;;;;;;;2.78;1.35;;;7.80;99.90;;;6.76;100.00;96567.88;5008818;28;20754;-75
2023/04/02 01:04:01;;;;;;;3.30;1.40;;;7.80;99.90;;;6.91;100.00;96573.31;5011398;28;20412;-75
2023/04/02 01:06:33;;;;;;;1.35;1.25;;;7.80;99.90;;;6.91;100.00;96573.31;5011017;28;20987;-75
2023/04/02 01:09:22;;;;;;;2.00;1.05;;;7.90;99.90;;;7.02;100.00;96576.03;5011248;28;20543;-75
2023/04/02 01:12:40;;;;;;;1.57;1.10;;;8.00;99.90;;;6.99;100.00;96580.72;5011124;28;20443;-75
2023/04/02 01:15:17;;;;;;;1.15;1.10;;;8.00;99.90;;;6.83;100.00;96579.00;5010879;28;20485;-75
2023/04/02 01:18:05;;;;;;;3.40;1.60;;;7.80;99.90;;;6.94;100.00;96574.63;5010761;28;20407;-75
2023/04/02 01:21:09;;;;;;;1.90;1.40;;;7.90;99.90;;;6.91;100.00;96577.78;5010580;28;20440;-75
2023/04/02 01:23:51;;;;;;;1.40;1.20;;;7.90;99.90;;;6.96;100.00;96577.81;5004346;28;20504;-75
2023/04/02 01:26:30;;;;;;;3.50;1.60;;;8.00;99.90;;;6.90;100.00;96582.22;5011041;28;20425;-75
2023/04/02 01:29:05;;;;;;;2.25;1.25;;;7.90;99.90;;;7.07;100.00;96584.75;5010892;28;20826;-75
2023/04/02 01:31:34;;;;;;;1.97;1.20;;;8.00;99.90;;;7.07;100.00;96584.75;5010768;28;20447;-75
2023/04/02 01:34:03;;;;;;;1.73;1.20;;;8.10;99.90;;;7.00;100.00;96589.41;5010955;28;20401;-75
2023/04/02 01:36:40;;;;;;;2.05;1.27;;;8.00;99.90;;;7.19;100.00;96595.94;5010880;28;20412;-75
2023/04/02 01:39:21;;;;;;;4.28;1.20;;;8.00;99.90;;;7.12;100.00;96591.91;5011422;28;20940;-75
2023/04/02 01:41:53;;;;;;;1.50;1.17;;;8.10;99.90;;;7.15;100.00;96594.84;5010629;28;20455;-75
2023/04/02 01:44:28;;;;;;;2.80;1.25;;;8.10;99.90;;;7.06;100.00;96582.41;5010708;28;20396;-75
2023/04/02 01:46:57;;;;;;;1.23;1.13;;;8.00;99.90;;;6.96;100.00;96594.41;5010685;28;21073;-75
2023/04/02 01:49:23;;;;;;;2.20;1.40;;;8.00;99.90;;;6.99;100.00;96588.63;5010508;28;20404;-75
2023/04/02 01:51:55;;;;;;;1.83;1.38;;;8.00;99.90;;;7.16;100.00;96600.91;4992982;28;20491;-75
2023/04/02 01:54:21;;;;;;;1.87;1.20;;;8.10;99.90;;;7.07;100.00;96600.53;5010883;28;20459;-75
2023/04/02 01:56:48;;;;;;;1.40;1.30;;;8.00;99.90;;;7.06;100.00;96606.06;5010456;28;20504;-75
2023/04/02 01:59:18;;;;;;;1.50;1.40;;;8.00;99.90;;;7.05;100.00;96605.28;5009800;28;20415;-75
2023/04/02 02:01:51;;;;;;;1.50;1.40;;;8.10;99.90;;;7.03;100.00;96606.56;5010708;28;20401;-75
2023/04/02 02:04:18;;;;;;;1.52;1.30;;;8.00;99.90;;;7.03;100.00;96609.19;5010501;28;20953;-75
2023/04/02 02:06:45;;;;;;;1.90;1.40;;;8.00;99.90;;;7.10;100.00;96609.78;5010419;28;20907;-75
2023/04/02 02:09:18;;;;;;;1.40;1.10;;;8.10;99.90;;;7.34;100.00;96609.25;5010692;28;20882;-75
2023/04/02 02:11:44;;;;;;;2.90;1.20;;;8.20;99.90;;;7.24;100.00;96611.78;5010304;28;20405;-75
2023/04/02 02:14:16;;;;;;;1.35;1.25;;;8.30;99.90;;;7.16;100.00;96608.78;5010497;28;20415;-75
2023/04/02 02:16:44;;;;;;;1.45;1.20;;;8.20;99.90;;;7.25;100.00;96609.94;5010313;28;20874;-75
2023/04/02 02:19:22;;;;;;;2.53;1.40;;;8.20;99.90;;;7.33;100.00;96620.81;5009689;28;20786;-75
2023/04/02 02:21:51;;;;;;;1.45;1.35;;;8.30;99.90;;;7.32;100.00;96621.06;5010305;28;20412;-75
2023/04/02 02:24:22;;;;;;;1.93;1.30;;;8.30;99.90;;;7.24;100.00;96626.78;5010432;28;20452;-76
2023/04/02 02:26:55;;;;;;;1.40;1.30;;;8.20;99.90;;;7.32;100.00;96624.50;5010645;28;20427;-75
2023/04/02 02:29:25;;;;;;;1.48;1.27;;;8.30;99.90;;;7.23;100.00;96625.19;5011161;28;20411;-75
2023/04/02 02:31:53;;;;;;;1.40;1.08;;;8.30;99.90;;;7.15;100.00;96621.16;5013709;28;20428;-75
2023/04/02 02:34:33;;;;;;;2.20;1.40;;;8.20;99.90;;;7.18;100.00;96631.19;5013927;28;20401;-75
2023/04/02 02:37:05;;;;;;;2.10;1.30;;;8.20;99.90;;;7.14;100.00;96631.94;5013891;28;20754;-74
2023/04/02 02:39:38;;;;;;;2.20;1.30;;;8.20;99.90;;;7.20;100.00;96629.13;5013739;28;20405;-74
2023/04/02 02:42:12;;;;;;;1.20;1.15;;;8.20;99.90;;;7.17;100.00;96634.06;5013609;28;20397;-75
2023/04/02 02:44:43;;;;;;;2.00;1.30;;;8.20;99.90;;;7.18;100.00;96635.66;5013965;28;20408;-75
2023/04/02 02:47:14;;;;;;;2.63;1.48;;;8.20;99.90;;;7.38;100.00;96638.50;5013656;28;20928;-74
2023/04/02 02:49:44;;;;;;;1.52;1.30;;;8.30;99.90;;;7.30;100.00;96644.19;5013528;28;20885;-75
2023/04/02 02:52:16;;;;;;;1.40;1.30;;;8.30;99.90;;;7.29;100.00;96645.28;5013433;28;20408;-75
2023/04/02 02:54:47;;;;;;;2.35;1.30;;;8.20;99.90;;;7.26;100.00;96656.28;5013520;28;20454;-75
2023/04/02 02:57:18;;;;;;;1.75;1.27;;;8.30;99.90;;;7.23;100.00;96652.28;5013930;28;20944;-75
2023/04/02 02:59:45;;;;;;;2.50;1.10;;;8.30;99.90;;;7.18;100.00;96654.09;5015693;28;20411;-75
2023/04/02 03:02:13;;;;;;;1.50;1.23;;;8.20;99.90;;;7.18;100.00;96651.47;5015785;28;20401;-75
2023/04/02 03:04:45;;;;;;;2.88;1.45;;;8.20;99.90;;;7.16;100.00;96650.91;5015549;28;20396;-75
2023/04/02 03:07:15;;;;;;;2.65;1.27;;;8.20;99.90;;;7.16;100.00;96659.59;5013279;28;20505;-75
2023/04/02 03:09:51;;;;;;;1.33;1.23;;;8.20;99.90;;;7.17;100.00;96663.03;5013004;28;20547;-75
2023/04/02 03:12:37;;;;;;;1.30;1.20;;;8.20;99.90;;;7.16;100.00;96659.59;5013114;28;20401;-75
2023/04/02 03:15:16;;;;;;;2.40;1.40;;;8.10;99.90;;;7.11;100.00;96670.06;5013098;28;20415;-75
2023/04/02 03:17:48;;;;;;;1.20;1.10;;;8.10;99.90;;;7.08;100.00;96678.44;5013209;28;20945;-75
2023/04/02 03:20:24;;;;;;;1.85;1.00;;;8.10;99.90;;;7.06;100.00;96680.56;5013047;28;20412;-75
2023/04/02 03:22:57;;;;;;;1.30;1.20;;;8.00;99.90;;;7.08;100.00;96673.19;5012886;28;20397;-75
2023/04/02 03:25:35;;;;;;;1.33;1.23;;;8.10;99.90;;;7.10;100.00;96676.38;5013102;28;20488;-75
2023/04/02 03:28:06;;;;;;;1.98;1.23;;;8.10;99.90;;;7.08;100.00;96682.91;5012904;28;20551;-75
2023/04/02 03:30:40;;;;;;;1.60;1.35;;;8.10;99.90;;;7.03;100.00;96680.22;5012701;28;20404;-75
2023/04/02 03:33:13;;;;;;;1.70;1.23;;;8.00;99.90;;;7.05;100.00;96676.31;5012737;28;20401;-75
2023/04/02 03:35:47;;;;;;;1.98;1.40;;;8.10;99.90;;;7.03;100.00;96688.94;5012742;28;20429;-75
2023/04/02 03:38:21;;;;;;;3.00;1.38;;;8.00;99.90;;;7.06;100.00;96687.66;5011939;28;20428;-75
2023/04/02 03:41:00;;;;;;;2.42;1.30;;;8.10;99.90;;;7.04;100.00;96689.72;5012199;28;20747;-75
2023/04/02 03:43:31;;;;;;;2.80;1.20;;;8.10;99.90;;;7.05;100.00;96691.31;5012495;28;20409;-75
2023/04/02 03:46:07;;;;;;;1.65;1.55;;;8.00;99.90;;;7.06;100.00;96698.19;5012563;28;20793;-75
2023/04/02 03:48:39;;;;;;;1.63;1.30;;;8.10;99.90;;;6.97;100.00;96693.34;5012406;28;20491;-75
2023/04/02 03:51:16;;;;;;;2.75;1.20;;;8.00;99.90;;;6.93;100.00;96696.69;5012100;28;20409;-75
2023/04/02 03:53:43;;;;;;;2.58;1.40;;;8.00;99.90;;;6.91;100.00;96696.94;5012585;28;20847;-75
2023/04/02 03:56:18;;;;;;;1.30;1.20;;;8.00;99.90;;;6.87;100.00;96698.47;5012606;28;20440;-75
2023/04/02 03:58:50;;;;;;;2.42;1.40;;;7.90;99.90;;;6.94;100.00;96700.91;5012683;28;20901;-76
2023/04/02 04:01:25;;;;;;;3.63;1.52;;;7.90;99.90;;;6.89;100.00;96703.50;5012003;28;20447;-76
2023/04/02 04:03:55;;;;;;;1.80;1.40;;;7.90;99.90;;;6.87;100.00;96700.28;5012447;28;20435;-75
2023/04/02 04:06:27;;;;;;;2.92;1.40;;;7.90;99.90;;;6.84;100.00;96704.19;4994543;28;20416;-75
2023/04/02 04:08:59;;;;;;;2.10;1.20;;;7.90;99.90;;;6.85;100.00;96710.25;5011810;28;20862;-75
2023/04/02 04:11:32;;;;;;;1.70;1.30;;;7.90;99.90;;;6.81;100.00;96706.53;5011964;28;20413;-76
2023/04/02 04:14:05;;;;;;;1.40;1.30;;;7.80;99.90;;;6.83;100.00;96715.78;5012099;28;20412;-75
2023/04/02 04:16:41;;;;;;;1.65;1.13;;;7.80;99.90;;;6.85;100.00;96718.16;5012197;28;20874;-75
2023/04/02 04:19:16;;;;;;;1.75;1.50;;;7.90;99.90;;;6.89;100.00;96721.91;5026661;28;20458;-75
2023/04/02 04:21:45;;;;;;;3.10;1.20;;;7.90;99.90;;;6.91;100.00;96722.47;5026487;28;20412;-76
2023/04/02 04:24:20;;;;;;;2.65;1.40;;;7.90;99.90;;;6.90;100.00;96728.75;5033346;28;20403;-76
2023/04/02 04:26:53;;;;;;;2.10;1.27;;;7.90;99.90;;;6.90;100.00;96726.13;5033311;28;20419;-75
2023/04/02 04:29:37;;;;;;;1.50;1.17;;;7.90;99.90;;;6.88;100.00;96733.47;5033284;28;20406;-75
2023/04/02 04:32:26;;;;;;;1.42;1.33;;;7.90;99.90;;;6.96;100.00;96739.09;5033136;28;20861;-75
2023/04/02 04:34:56;;;;;;;1.30;1.20;;;7.90;99.90;;;6.96;100.00;96739.09;5033243;28;20406;-76
2023/04/02 04:37:32;;;;;;;3.57;1.50;;;8.00;99.90;;;6.92;100.00;96747.72;5033190;28;20400;-75
2023/04/02 04:40:07;;;;;;;2.15;1.40;;;8.00;99.90;;;6.92;100.00;96743.25;5036517;28;20910;-77
2023/04/02 04:42:36;;;;;;;2.35;1.25;;;8.00;99.90;;;6.97;100.00;96751.22;5037626;28;20489;-76
2023/04/02 04:45:12;;;;;;;2.08;1.50;;;7.90;99.90;;;6.97;100.00;96753.06;5015313;28;20416;-76
2023/04/02 04:47:45;;;;;;;1.60;1.20;;;8.00;99.90;;;6.95;100.00;96760.38;5035410;28;20415;-76
2023/04/02 04:50:15;;;;;;;1.75;1.42;;;8.00;99.90;;;6.97;100.00;96753.84;5025931;28;20399;-76
2023/04/02 04:52:43;;;;;;;2.35;1.55;;;8.00;99.90;;;6.97;100.00;96766.22;5032212;28;20407;-76
2023/04/02 04:55:33;;;;;;;1.45;1.35;;;8.00;99.90;;;6.98;100.00;96762.53;5036356;28;20492;-76
2023/04/02 04:58:07;;;;;;;1.92;1.40;;;8.00;99.90;;;6.93;100.00;96768.50;5026266;28;20412;-76
2023/04/02 05:00:42;;;;;;;1.65;1.30;;;8.00;99.90;;;6.91;100.00;96775.06;5029124;28;20407;-76
2023/04/02 05:03:21;;;;;;;1.40;1.30;;;7.90;99.90;;;6.90;100.00;96773.47;5038817;28;20494;-76
2023/04/02 05:05:47;;;;;;;1.85;1.38;;;7.90;99.90;;;6.91;100.00;96777.72;5036620;28;20484;-76
2023/04/02 05:08:25;;;;;;;4.13;1.48;;;7.90;99.90;;;6.89;100.00;96780.56;5028601;28;20913;-76
2023/04/02 05:10:58;;;;;;;2.58;1.45;;;7.90;99.90;;;6.86;100.00;96782.88;5027982;28;20397;-76
2023/04/02 05:13:32;;;;;;;2.05;1.25;;;7.90;99.90;;;6.92;100.00;96776.66;5034934;28;20430;-76
2023/04/02 05:16:10;;;;;;;1.85;1.33;;;7.90;99.90;;;7.03;100.00;96788.13;5016943;28;20827;-76
2023/04/02 05:18:42;;;;;;;2.00;1.20;;;8.10;99.90;;;7.00;100.00;96784.94;5030406;28;20481;-75
2023/04/02 05:21:19;;;;;;;3.75;1.50;;;8.00;99.90;;;6.99;100.00;96791.22;5006334;28;20403;-76
2023/04/02 05:23:51;;;;;;;1.67;1.13;;;8.00;99.90;;;7.03;100.00;96793.38;5030491;28;20399;-76
2023/04/02 05:26:24;;;;;;;1.65;1.25;;;8.00;99.90;;;6.98;100.00;96792.28;5030570;28;20403;-76
2023/04/02 05:28:58;;;;;;;2.07;1.30;;;8.00;99.90;;;7.01;100.00;96785.72;5028658;28;20401;-76
2023/04/02 05:31:31;;;;;;;2.60;1.27;;;8.00;99.90;;;7.00;100.00;96790.19;5036250;28;20411;-76
2023/04/02 05:33:57;;;;;;;1.60;1.50;;;8.00;99.90;;;6.98;100.00;96792.28;5035338;28;20393;-75
2023/04/02 05:36:28;;;;;;;1.80;1.40;;;8.00;99.90;;;6.99;100.00;96800.97;5033581;28;20407;-76
2023/04/02 05:38:58;;;;;;;2.30;1.43;;;8.00;99.90;;;6.95;100.00;96795.38;5028690;28;20395;-76
2023/04/02 05:41:30;;;;;;;2.10;1.35;;;8.00;99.90;;;6.98;100.00;96797.56;5030861;28;20387;-75
2023/04/02 05:44:06;;;;;;;1.30;1.20;;;8.00;99.90;;;7.08;100.00;96806.59;5031622;28;20759;-75
2023/04/02 05:46:40;;;;;;;2.35;1.30;;;8.00;99.90;;;7.04;100.00;96813.41;5025287;28;20868;-75
2023/04/02 05:49:17;;;;;;;2.90;1.20;;;8.10;99.90;;;7.09;100.00;96810.81;5031886;28;20867;-75
2023/04/02 05:51:49;;;;;;;3.60;1.38;;;8.10;99.90;;;7.07;100.00;96812.94;5032823;28;20411;-75
2023/04/02 05:54:24;;;;;;;1.40;1.30;;;8.00;99.90;;;7.08;100.00;96807.41;5031317;28;20431;-75
2023/04/02 05:56:56;;;;;;;1.45;1.30;;;8.10;99.90;;;7.10;100.00;96812.44;5032791;28;20443;-76
2023/04/02 05:59:28;;;;;;;1.70;1.10;;;8.10;99.90;;;7.09;100.00;96818.72;5024124;28;20413;-76
2023/04/02 06:02:01;;;;;;;1.37;1.27;;;8.10;99.90;;;7.13;100.00;96819.84;5023420;28;20422;-76
2023/04/02 06:04:34;;;;;;;1.38;1.27;;;8.10;99.90;;;7.15;100.00;96820.38;5026465;28;20404;-76
2023/04/02 06:07:07;;;;;;;1.20;1.10;;;8.10;99.90;;;7.19;100.00;96829.41;5007204;28;20427;-76
2023/04/02 06:09:41;;;;;;;2.35;1.17;;;8.20;99.90;;;7.23;100.00;96838.38;5023569;28;20404;-76
2023/04/02 06:12:21;;;;;;;1.05;1.05;;;8.20;99.90;;;7.27;100.00;96840.31;5010622;28;20533;-76
2023/04/02 06:14:47;;;;;;;1.50;1.20;;;8.30;99.90;;;7.32;100.00;96843.00;5031748;28;20410;-76
2023/04/02 06:17:16;;;;;;;2.40;1.25;;;8.30;99.90;;;7.37;100.00;96848.31;5028830;28;20403;-76
2023/04/02 06:19:43;;;;;;;1.13;1.02;;;8.30;99.90;;;7.41;100.00;96858.38;5035345;28;20395;-76
2023/04/02 06:22:21;;;;;;;1.10;1.00;;;8.40;99.90;;;7.46;100.00;96858.44;5026463;28;20931;-76
2023/04/02 06:24:54;;;;;;;1.40;1.10;;;8.40;99.90;;;7.49;100.00;96856.13;5027812;28;20880;-76
2023/04/02 06:27:26;;;;;;;1.50;1.40;;;8.40;99.90;;;7.54;100.00;96868.56;5034267;28;20461;-75
2023/04/02 06:29:57;;;;;;;1.73;1.10;;;8.50;99.90;;;7.56;100.00;96869.13;5037440;28;20405;-75
2023/04/02 06:32:25;;;;;;;1.50;1.30;;;8.50;99.90;;;7.60;100.00;96870.19;5047472;28;20397;-75
2023/04/02 06:34:52;;;;;;;1.40;1.30;;;8.60;99.90;;;7.63;100.00;96875.78;5053547;28;20486;-78
2023/04/02 06:37:26;;;;;;;1.70;1.30;;;8.60;99.90;;;7.66;100.00;96871.88;5053669;28;20405;-75
2023/04/02 06:39:55;;;;;;;1.75;1.20;;;8.60;99.90;;;7.70;100.00;96886.94;5034820;28;20920;-76
2023/04/02 06:42:27;;;;;;;1.92;1.20;;;8.70;99.90;;;7.70;100.00;96883.50;5047962;28;20446;-75
2023/04/02 06:44:53;;;;;;;1.20;1.10;;;8.70;99.90;;;7.74;100.00;96887.25;5032277;28;20414;-76
2023/04/02 06:47:29;;;;;;;1.20;1.10;;;8.70;99.90;;;7.78;100.00;96894.41;5016770;28;20500;-76
2023/04/02 06:50:03;;;;;;;2.53;1.10;;;8.70;99.90;;;7.82;100.00;96899.22;5036040;28;20746;-74
2023/04/02 06:52:35;;;;;;;1.98;1.23;;;8.80;99.90;;;7.86;100.00;96897.66;5038673;28;20424;-74
2023/04/02 06:55:26;;;;;;;1.08;1.02;;;8.80;99.90;;;7.91;100.00;96895.88;5033351;28;20401;-75
2023/04/02 06:57:51;;;;;;;1.25;1.13;;;8.90;99.90;;;7.99;100.00;96899.94;5028488;28;20403;-75
2023/04/02 07:00:29;;;;;;;1.10;1.00;;;8.90;99.90;;;8.02;100.00;96916.06;5032524;28;20419;-75
2023/04/02 07:02:56;;;;;;;1.30;1.20;;;9.00;99.90;;;8.03;100.00;96915.03;5023999;28;20811;-79
2023/04/02 07:05:22;;;;;;;1.15;1.05;;;9.00;99.90;;;8.08;100.00;96925.63;5029014;28;20401;-76
2023/04/02 07:07:48;;;;;;;1.58;1.10;;;9.00;99.90;;;8.10;100.00;96933.28;5028615;28;20453;-76
2023/04/02 07:10:18;;;;;;;1.63;1.25;;;9.00;99.90;;;8.09;100.00;96926.41;5012220;28;20407;-76
2023/04/02 07:12:44;;;;;;;1.80;1.20;;;9.00;99.90;;;8.08;100.00;96933.53;5005207;28;20446;-76
2023/04/02 07:15:18;;;;;;;1.90;1.10;;;9.00;99.90;;;8.13;100.00;96941.47;5028232;28;20418;-76
2023/04/02 07:17:45;;;;;;;2.95;1.40;;;9.10;99.90;;;8.16;100.00;96941.00;5011083;28;20924;-77
2023/04/02 07:20:26;;;;;;;1.45;1.10;;;9.10;99.90;;;8.22;100.00;96938.41;5025679;28;20415;-76
2023/04/02 07:22:51;;;;;;;1.30;1.20;;;9.20;99.90;;;8.29;100.00;96939.03;5029581;28;20902;-77
2023/04/02 07:25:19;;;;;;;1.30;1.20;;;9.20;99.90;;;8.35;100.00;96946.75;5030299;28;20422;-76
2023/04/02 07:27:45;;;;;;;2.35;1.20;;;9.30;99.90;;;8.41;100.00;96952.91;5013898;28;20422;-76
2023/04/02 07:30:11;;;;;;;1.55;1.00;;;9.30;99.90;;;8.46;100.00;96953.75;5032753;28;20407;-77
2023/04/02 07:32:37;;;;;;;2.27;1.30;;;9.40;99.90;;;8.50;100.00;96956.69;5032754;28;20409;-77
2023/04/02 07:35:04;;;;;;;2.90;1.20;;;9.40;99.90;;;8.54;100.00;96963.88;5031217;28;20399;-77
2023/04/02 07:37:30;;;;;;;1.20;1.10;;;9.50;99.90;;;8.57;100.00;96964.44;5032730;28;20804;-77
2023/04/02 07:39:56;;;;;;;1.57;1.20;;;9.50;99.90;;;8.59;100.00;96968.38;5032731;28;20396;-77
2023/04/02 07:42:24;;;;;;;1.50;1.00;;;9.50;99.90;;;8.59;100.00;96973.66;5032746;28;20407;-76
2023/04/02 07:44:50;;;;;;;1.42;1.13;;;9.50;99.90;;;8.62;100.00;96975.81;5029646;28;20432;-77
2023/04/02 07:47:16;;;;;;;1.52;1.42;;;9.50;99.90;;;8.60;100.00;96972.63;5033135;28;20828;-77
2023/04/02 07:49:42;;;;;;;1.20;1.10;;;9.50;99.90;;;8.61;100.00;96976.88;5031310;28;20422;-77
2023/04/02 07:52:08;;;;;;;1.00;0.93;;;9.60;99.90;;;8.61;100.00;96986.63;5033186;28;20411;-75
2023/04/02 07:54:34;;;;;;;1.20;1.10;;;9.60;99.90;;;8.62;100.00;96981.09;5033899;28;20420;-76
2023/04/02 07:57:01;;;;;;;1.13;1.00;;;9.50;99.90;;;8.63;100.00;96987.16;5032620;28;20913;-76
2023/04/02 07:59:29;;;;;;;2.92;1.10;;;9.60;99.90;;;8.64;100.00;96992.22;5031002;28;20419;-76
2023/04/02 08:01:55;;;;;;;1.17;1.00;;;9.60;99.90;;;8.68;100.00;96998.56;5027365;28;20418;-76
2023/04/02 08:04:21;;;;;;;1.60;1.13;;;9.60;99.90;;;8.62;100.00;96996.13;5031983;28;20409;-76
2023/04/02 08:06:51;;;;;;;1.70;1.20;;;9.50;99.90;;;8.53;100.00;96999.19;5033448;28;20403;-75
2023/04/02 08:09:17;;;;;;;0.90;0.90;;;9.40;99.90;;;8.56;100.00;97008.47;5031646;28;20452;-77
2023/04/02 08:11:45;;;;;;;1.20;1.10;;;9.50;99.90;;;8.59;100.00;97013.25;5032358;28;20399;-73
2023/04/02 08:14:11;;;;;;;1.40;1.30;;;9.50;99.90;;;8.63;100.00;97005.63;5026516;28;20467;-74
2023/04/02 08:16:50;;;;;;;0.90;0.90;;;9.60;99.90;;;8.63;100.00;97009.06;5027378;28;20403;-76
2023/04/02 08:19:17;;;;;;;1.55;1.10;;;9.60;99.90;;;8.64;100.00;97017.78;5028986;28;20403;-76
2023/04/02 08:21:44;;;;;;;1.30;1.00;;;9.60;99.90;;;8.65;100.00;97022.78;5030703;28;20399;-75
2023/04/02 08:24:10;;;;;;;1.20;1.10;;;9.60;99.90;;;8.66;100.00;97024.41;5030787;28;20411;-75
2023/04/02 08:26:36;;;;;;;5.05;1.80;;;9.60;99.90;;;8.67;100.00;97033.13;5011381;28;20403;-75
2023/04/02 08:29:02;;;;;;;1.80;1.55;;;9.60;99.90;;;8.68;100.00;97035.50;5029768;28;20453;-75
2023/04/02 08:31:29;;;;;;;2.47;1.60;;;9.60;99.90;;;8.70;100.00;97035.28;5027628;28;20423;-75
2023/04/02 08:33:57;;;;;;;2.25;1.42;;;9.60;99.90;;;8.72;100.00;97035.81;5025199;28;20974;-75
2023/04/02 08:36:28;;;;;;;2.78;1.77;;;9.70;99.90;;;8.75;100.00;97043.22;5027239;28;20488;-75
2023/04/02 08:38:54;;;;;;;1.67;1.30;;;9.70;99.90;;;8.77;100.00;97044.59;5024342;28;20680;-76
2023/04/02 08:41:26;;;;;;;1.77;1.30;;;9.70;99.90;;;8.81;100.00;97050.16;5030153;28;20821;-76
2023/04/02 08:44:40;;;;;;;1.40;1.30;;;9.70;99.90;;;8.85;100.00;97046.00;5006396;28;20496;-76
2023/04/02 08:47:09;;;;;;;1.73;1.30;;;9.70;99.90;;;8.89;100.00;97053.16;4983233;28;20796;-76
2023/04/02 08:49:42;;;;;;;1.70;1.08;;;9.80;99.90;;;8.96;100.00;97047.69;4981451;28;20412;-76
2023/04/02 08:52:22;;;;;;;1.20;1.10;;;9.80;99.90;;;9.00;100.00;97056.72;5008264;28;20413;-76
2023/04/02 08:54:49;;;;;;;1.30;1.20;;;9.90;99.90;;;9.02;100.00;97056.47;5027757;28;20403;-76
2023/04/02 08:57:30;;;;;;;1.70;1.13;;;9.90;99.90;;;9.03;100.00;97064.13;5019872;28;20402;-76
2023/04/02 09:00:05;;;;;;;1.63;1.20;;;9.90;99.90;;;9.04;100.00;97073.63;5021421;28;20482;-75
2023/04/02 09:02:39;;;;;;;1.20;1.10;;;9.90;99.90;;;9.03;100.00;97073.88;5027973;28;20399;-75
2023/04/02 09:05:17;;;;;;;2.20;1.30;;;9.90;99.90;;;9.03;100.00;97077.31;5024806;28;20402;-77
2023/04/02 09:07:44;;;;;;;1.73;1.43;;;9.90;99.90;;;9.02;100.00;97080.22;5022891;28;20408;-75
2023/04/02 09:10:14;;;;;;;2.92;1.65;;;9.90;99.90;;;9.01;100.00;97083.91;5022900;28;20410;-75
2023/04/02 09:12:42;;;;;;;1.30;1.20;;;9.90;99.90;;;8.97;100.00;97080.94;5005680;28;20415;-74
2023/04/02 09:15:23;;;;;;;1.55;1.42;;;9.90;99.90;;;8.94;100.00;97086.75;5007841;28;20407;-75
2023/04/02 09:17:56;;;;;;;3.83;1.40;;;9.90;99.90;;;8.92;100.00;97083.53;5024795;28;20399;-75
2023/04/02 09:20:27;;;;;;;1.85;1.50;;;9.80;99.90;;;8.89;100.00;97094.59;5024783;28;20893;-74
2023/04/02 09:22:54;;;;;;;2.73;1.50;;;9.80;99.90;;;8.87;100.00;97097.47;5027590;28;20411;-76
2023/04/02 09:25:25;;;;;;;1.50;1.40;;;9.80;99.90;;;8.85;100.00;97106.69;5019681;28;20889;-75
2023/04/02 09:27:55;;;;;;;1.40;1.30;;;9.80;99.90;;;8.83;100.00;97100.84;5025161;28;20419;-76
2023/04/02 09:30:34;;;;;;;2.22;1.48;;;9.70;99.90;;;8.80;100.00;97111.88;5017408;28;20397;-75
2023/04/02 09:33:06;;;;;;;2.63;1.50;;;9.80;99.90;;;8.79;100.00;97112.97;5001317;28;20520;-75
2023/04/02 09:35:35;;;;;;;2.70;1.40;;;9.70;99.90;;;8.77;100.00;97120.31;5020229;28;20410;-74
2023/04/02 09:38:17;;;;;;;1.58;1.45;;;9.70;99.90;;;8.77;100.00;97120.31;5019816;28;20416;-75
2023/04/02 09:40:49;;;;;;;1.60;1.50;;;9.70;99.90;;;8.78;100.00;97125.34;5021431;28;20407;-75
2023/04/02 09:43:17;;;;;;;2.20;1.60;;;9.70;99.90;;;8.78;100.00;97127.19;5023049;28;20454;-75
2023/04/02 09:45:54;;;;;;;2.70;1.50;;;9.70;99.90;;;8.81;100.00;97126.69;5022682;28;20424;-76
2023/04/02 09:48:29;;;;;;;1.45;1.30;;;9.70;99.90;;;8.84;100.00;97139.41;5021619;28;20475;-75
2023/04/02 09:51:23;;;;;;;1.52;1.40;;;9.80;99.90;;;8.87;100.00;97144.97;5028393;28;20410;-76
2023/04/02 09:54:04;;;;;;;1.80;1.20;;;9.80;99.90;;;8.92;100.00;97141.63;5005348;28;20423;-76
2023/04/02 09:56:32;;;;;;;2.10;1.52;;;9.80;99.90;;;8.97;100.00;97143.50;5031442;28;20544;-76
2023/04/02 09:59:03;;;;;;;1.77;1.40;;;9.80;99.90;;;9.03;100.00;97140.66;5029024;28;20924;-76
2023/04/02 10:01:32;;;;;;;1.35;1.25;;;9.90;99.90;;;9.08;100.00;97153.94;5028739;28;20456;-75
2023/04/02 10:04:00;;;;;;;1.38;1.27;;;10.00;99.90;;;9.14;100.00;97160.09;5028501;28;20407;-75
2023/04/02 10:06:30;;;;;;;1.30;1.20;;;10.00;99.90;;;9.18;100.00;97156.69;5030347;28;20399;-75
2023/04/02 10:08:57;;;;;;;1.65;1.20;;;10.10;99.90;;;9.25;100.00;97157.28;5013508;28;20781;-76
2023/04/02 10:11:27;;;;;;;1.80;1.23;;;10.10;99.90;;;9.33;100.00;97164.78;5030302;28;20431;-76
2023/04/02 10:14:00;;;;;;;1.30;1.20;;;10.20;99.90;;;9.40;100.00;97163.81;5031124;28;20487;-76
2023/04/02 10:16:32;;;;;;;4.67;1.37;;;10.30;99.90;;;9.45;100.00;97167.28;5015068;28;20416;-76
2023/04/02 10:19:05;;;;;;;2.53;1.20;;;10.30;99.90;;;9.52;100.00;97165.25;5011506;28;20416;-76
2023/04/02 10:21:37;;;;;;;1.33;1.10;;;10.40;99.90;;;9.64;100.00;97162.44;5008202;28;20408;-76
2023/04/02 10:24:11;;;;;;;1.15;1.05;;;10.50;99.90;;;9.74;100.00;97167.03;5024557;28;20459;-75
2023/04/02 10:26:54;;;;;;;1.90;1.20;;;10.60;99.90;;;9.81;100.00;97167.63;5023290;28;20547;-75
2023/04/02 10:29:50;;;;;;;2.10;1.00;;;10.70;99.90;;;9.93;100.00;97173.53;5018959;28;20448;-76
2023/04/02 10:32:20;;;;;;;2.22;1.00;;;10.80;99.90;;;9.99;100.00;97172.56;5017075;28;21117;-76
2023/04/02 10:34:56;;;;;;;1.10;1.00;;;10.80;99.90;;;10.05;100.00;97169.69;5024000;28;20947;-75
2023/04/02 10:38:26;;;;;;;1.25;0.90;;;10.90;99.90;;;10.13;100.00;97171.06;5019406;28;20480;-75
2023/04/02 10:40:59;;;;;;;1.30;1.13;;;10.90;99.90;;;10.19;100.00;97174.56;4993079;28;20483;-76
2023/04/02 10:43:49;;;;;;;1.10;1.00;;;11.00;99.90;;;10.31;100.00;97183.13;5023352;28;20399;-75
2023/04/02 10:46:23;;;;;;;1.55;1.10;;;11.20;99.90;;;10.29;100.00;97188.69;5023933;28;20715;-75
2023/04/02 10:49:02;;;;;;;2.40;1.20;;;11.10;99.90;;;10.35;100.00;97192.16;5019649;28;20424;-75
2023/04/02 10:51:38;;;;;;;2.00;1.00;;;11.20;99.90;;;10.36;100.00;97193.75;5024833;28;20397;-75